ESNK

Kramfors Sollefteå Airport

Kramfors / Sollefteå, Sweden
METAR ESNK 140720Z 33006KT CAVOK M17/M20 Q1034
Observed Flight Rules
Dec-14 @ 07:20 UTC (24 minutes ago) Visual Flight Rules
Wind Visibility Clouds
330° at 6 knots 10,000+ meters
  • Clear skies
Temperatures Readings
Current -17°C / 1°F
Dewpoint -20°C / -4°F
Humidity 78%
Altimeter 30.53" Hg
Pressure 1034 hPa
Elevation 19
METAR ESNK 140720Z 33006KT CAVOK M17/M20 Q1034
Observed Flight Rules
Dec-14 @ 07:20 UTC
(24 minutes ago)
VFR
Wind Visibility
330° at 6 knots 10,000+ meters
Clouds
  • Clear skies
Temperature Dewpoint
-17°C / 1°F -20°C / -4°F
Humidity Altimeter Pressure
78% 30.53" Hg 1034 hPa